createdAt,value
2023-02-12T00:03:22.520Z,2.79
2023-02-12T00:08:28.247Z,3.30
2023-02-12T00:13:32.848Z,2.87
2023-02-12T00:18:37.309Z,3.01
2023-02-12T00:23:43.092Z,3.01
2023-02-12T00:28:47.708Z,3.62
2023-02-12T00:33:52.010Z,3.28
2023-02-12T00:38:58.866Z,3.32
2023-02-12T00:44:03.287Z,3.83
2023-02-12T00:49:07.697Z,3.33
2023-02-12T00:54:14.109Z,3.64
2023-02-12T00:59:18.600Z,3.67
2023-02-12T01:04:23.162Z,3.47
2023-02-12T01:09:28.966Z,2.96
2023-02-12T01:14:33.075Z,3.15
2023-02-12T01:19:37.464Z,3.19
2023-02-12T01:24:43.278Z,3.26
2023-02-12T01:29:47.335Z,3.67
2023-02-12T01:34:51.640Z,3.07
2023-02-12T01:39:59.839Z,2.88
2023-02-12T01:45:22.365Z,3.43
2023-02-12T01:50:27.081Z,3.67
2023-02-12T01:55:32.946Z,3.20
2023-02-12T02:00:37.528Z,3.53
2023-02-12T02:05:47.741Z,3.77
2023-02-12T02:10:53.620Z,3.81
2023-02-12T02:16:03.574Z,3.81
2023-02-12T02:21:43.056Z,3.96
2023-02-12T02:27:12.476Z,3.86
2023-02-12T02:32:24.823Z,3.27
2023-02-12T02:37:34.180Z,3.47
2023-02-12T02:42:45.273Z,2.77
2023-02-12T02:47:57.254Z,2.75
2023-02-12T02:53:06.102Z,2.76
2023-02-12T02:58:13.617Z,2.42
2023-02-12T03:03:25.377Z,2.34
2023-02-12T03:08:34.412Z,2.46
2023-02-12T03:13:44.841Z,2.43
2023-02-12T03:18:54.657Z,2.29
2023-02-12T03:24:03.763Z,2.53
2023-02-12T03:29:08.374Z,2.61
2023-02-12T03:34:21.787Z,2.31
2023-02-12T03:39:32.254Z,2.14
2023-02-12T03:44:48.409Z,2.12
2023-02-12T03:50:03.044Z,2.09
2023-02-12T03:55:08.490Z,1.76
2023-02-12T04:00:15.835Z,1.34
2023-02-12T04:05:24.683Z,0.97
2023-02-12T04:10:34.787Z,1.20
2023-02-12T04:15:52.647Z,0.97
2023-02-12T04:21:06.161Z,0.95
2023-02-12T04:26:18.858Z,0.88
2023-02-12T04:31:31.118Z,0.85
2023-02-12T04:36:43.444Z,0.67
2023-02-12T04:41:48.131Z,0.96
2023-02-12T04:46:52.968Z,0.74
2023-02-12T04:51:59.734Z,1.06
2023-02-12T04:57:05.247Z,1.14
2023-02-12T05:02:09.645Z,0.69
2023-02-12T05:07:15.371Z,0.89
2023-02-12T05:12:19.773Z,1.37
2023-02-12T05:17:24.950Z,0.92
2023-02-12T05:22:30.810Z,0.93
2023-02-12T05:27:35.223Z,0.93
2023-02-12T05:32:39.713Z,0.39
2023-02-12T05:37:45.518Z,0.20
2023-02-12T05:42:49.516Z,0.09
2023-02-12T05:47:53.956Z,0.59
2023-02-12T05:53:01.656Z,0.51
2023-02-12T05:58:06.305Z,0.48
2023-02-12T06:03:10.696Z,0.88
2023-02-12T06:08:16.577Z,0.65
2023-02-12T06:13:21.071Z,0.52
2023-02-12T06:18:26.105Z,0.81
2023-02-12T06:23:32.053Z,0.55
2023-02-12T06:28:36.115Z,0.36
2023-02-12T06:33:42.795Z,0.99
2023-02-12T06:38:50.190Z,0.56
2023-02-12T06:43:54.656Z,0.41
2023-02-12T06:49:01.068Z,0.28
2023-02-12T06:54:07.121Z,-0.03
2023-02-12T06:59:15.844Z,0.12
2023-02-12T07:04:20.333Z,0.22
2023-02-12T07:09:27.621Z,0.19
2023-02-12T07:14:32.332Z,0.58
2023-02-12T07:19:36.825Z,0.36
2023-02-12T07:24:43.644Z,0.08
2023-02-12T07:29:48.107Z,0.34
2023-02-12T07:34:52.707Z,0.49
2023-02-12T07:39:58.494Z,0.33
2023-02-12T07:45:03.140Z,0.97
2023-02-12T07:50:09.319Z,1.34
2023-02-12T07:55:15.173Z,1.26
2023-02-12T08:00:20.576Z,1.28
2023-02-12T08:05:25.043Z,1.46
2023-02-12T08:10:32.448Z,1.46
2023-02-12T08:15:37.103Z,1.15
2023-02-12T08:20:41.458Z,0.59
2023-02-12T08:25:47.335Z,1.07
2023-02-12T08:30:51.422Z,1.60
2023-02-12T08:36:04.216Z,1.12
2023-02-12T08:41:11.882Z,1.77
2023-02-12T08:46:18.023Z,2.52
2023-02-12T08:51:24.587Z,1.91
2023-02-12T08:56:33.014Z,1.59
2023-02-12T09:01:41.108Z,1.18
2023-02-12T09:06:46.776Z,1.12
2023-02-12T09:11:53.136Z,1.33
2023-02-12T09:16:58.445Z,1.49
2023-02-12T09:22:03.096Z,2.60
2023-02-12T09:27:09.003Z,2.63
2023-02-12T09:32:13.708Z,2.18
2023-02-12T09:37:18.254Z,2.61
2023-02-12T09:42:34.074Z,1.97
2023-02-12T09:47:46.274Z,1.81
2023-02-12T09:52:51.881Z,2.12
2023-02-12T09:57:58.093Z,3.41
2023-02-12T10:03:05.929Z,3.37
2023-02-12T10:08:32.707Z,2.66
2023-02-12T10:13:47.847Z,2.32
2023-02-12T10:19:20.203Z,3.94
2023-02-12T10:24:49.433Z,2.49
2023-02-12T10:29:59.283Z,2.36
2023-02-12T10:35:14.056Z,4.23
2023-02-12T10:40:21.946Z,3.98
2023-02-12T10:45:31.650Z,3.23
2023-02-12T10:50:51.420Z,2.04
2023-02-12T10:56:25.027Z,1.75
2023-02-12T11:01:33.179Z,3.00
2023-02-12T11:06:37.812Z,2.27
2023-02-12T11:11:42.450Z,3.16
2023-02-12T11:16:54.506Z,1.74
2023-02-12T11:22:08.146Z,2.05
2023-02-12T11:27:24.646Z,2.27
2023-02-12T11:32:31.723Z,2.33
2023-02-12T11:37:41.334Z,2.74
2023-02-12T11:42:50.802Z,2.71
2023-02-12T11:47:56.819Z,2.24
2023-02-12T11:53:08.133Z,2.48
2023-02-12T11:58:17.406Z,2.86
2023-02-12T12:03:29.972Z,2.37
2023-02-12T12:08:40.830Z,1.77
2023-02-12T12:13:50.357Z,2.48
2023-02-12T12:19:17.128Z,2.01
2023-02-12T12:24:28.816Z,1.80
2023-02-12T12:29:48.170Z,1.49
2023-02-12T12:34:54.276Z,1.43
2023-02-12T12:40:30.513Z,1.84
2023-02-12T12:46:08.401Z,1.99
2023-02-12T12:51:26.553Z,2.12
2023-02-12T12:56:45.234Z,2.24
2023-02-12T13:02:06.322Z,2.18
2023-02-12T13:07:27.581Z,2.59
2023-02-12T13:13:05.693Z,1.68
2023-02-12T13:18:23.221Z,1.93
2023-02-12T13:23:40.285Z,2.39
2023-02-12T13:28:49.207Z,2.00
2023-02-12T13:33:57.976Z,2.17
2023-02-12T13:39:12.132Z,2.30
2023-02-12T13:44:26.504Z,1.05
2023-02-12T13:49:41.061Z,1.74
2023-02-12T13:54:59.105Z,2.51
2023-02-12T14:00:08.448Z,4.50
2023-02-12T14:05:29.962Z,4.35
2023-02-12T14:10:38.491Z,5.79
2023-02-12T14:15:46.025Z,4.24
2023-02-12T14:21:10.765Z,4.30
2023-02-12T14:26:18.424Z,3.96
2023-02-12T14:31:33.300Z,2.91
2023-02-12T14:36:41.588Z,1.87
2023-02-12T14:41:48.472Z,2.00
2023-02-12T14:46:54.010Z,1.82
2023-02-12T14:52:05.074Z,2.11
2023-02-12T14:57:19.994Z,2.76
2023-02-12T15:02:27.100Z,2.61
2023-02-12T15:07:37.330Z,2.54
2023-02-12T15:12:47.517Z,2.70
2023-02-12T15:17:59.645Z,3.21
2023-02-12T15:23:05.155Z,2.72
2023-02-12T15:28:20.655Z,2.55
2023-02-12T15:33:30.425Z,2.39
2023-02-12T15:38:37.556Z,3.60
2023-02-12T15:43:43.840Z,3.82
2023-02-12T15:48:47.976Z,3.88
2023-02-12T15:53:53.064Z,3.35
2023-02-12T15:59:01.889Z,3.26
2023-02-12T16:04:08.866Z,3.10
2023-02-12T16:09:19.190Z,3.09
2023-02-12T16:14:29.463Z,2.29
2023-02-12T16:19:37.105Z,1.62
2023-02-12T16:24:48.636Z,1.17
2023-02-12T16:29:56.619Z,0.60
2023-02-12T16:35:03.855Z,0.58
2023-02-12T16:40:26.283Z,0.51
2023-02-12T16:45:43.814Z,0.60
2023-02-12T16:50:53.800Z,0.71
2023-02-12T16:55:59.016Z,1.07
2023-02-12T17:01:06.358Z,0.81
2023-02-12T17:06:11.917Z,1.81
2023-02-12T17:11:18.166Z,0.98
2023-02-12T17:16:30.925Z,-0.31
2023-02-12T17:21:39.712Z,0.21
2023-02-12T17:26:44.515Z,0.00
2023-02-12T17:31:54.018Z,-0.61
2023-02-12T17:36:58.604Z,0.12
2023-02-12T17:42:03.457Z,-0.05
2023-02-12T17:47:09.581Z,1.16
2023-02-12T17:52:14.740Z,-0.23
2023-02-12T17:57:19.264Z,-0.44
2023-02-12T18:02:25.370Z,-0.86
2023-02-12T18:07:30.535Z,1.18
2023-02-12T18:12:36.128Z,0.64
2023-02-12T18:17:43.826Z,-0.03
2023-02-12T18:22:50.157Z,-0.65
2023-02-12T18:27:55.202Z,0.65
2023-02-12T18:33:01.331Z,0.23
2023-02-12T18:38:06.187Z,0.12
2023-02-12T18:43:10.828Z,-0.97
2023-02-12T18:48:17.000Z,0.15
2023-02-12T18:53:21.595Z,1.83
2023-02-12T18:58:26.835Z,0.48
2023-02-12T19:03:32.969Z,1.13
2023-02-12T19:08:37.826Z,0.73
2023-02-12T19:13:42.590Z,-0.34
2023-02-12T19:18:51.689Z,-0.07
2023-02-12T19:23:57.199Z,-0.08
2023-02-12T19:29:03.326Z,1.19
2023-02-12T19:34:16.129Z,0.61
2023-02-12T19:39:22.832Z,0.76
2023-02-12T19:44:27.537Z,0.35
2023-02-12T19:49:34.292Z,0.71
2023-02-12T19:54:39.047Z,1.16
2023-02-12T19:59:46.543Z,0.29
2023-02-12T20:04:52.642Z,-0.25
2023-02-12T20:09:57.378Z,-0.73
2023-02-12T20:15:04.372Z,-0.35
2023-02-12T20:20:13.529Z,-0.73
2023-02-12T20:25:18.510Z,-0.99
2023-02-12T20:30:23.453Z,-1.23
2023-02-12T20:35:29.808Z,0.09
2023-02-12T20:40:34.850Z,0.45
2023-02-12T20:45:39.598Z,-0.08
2023-02-12T20:50:45.734Z,0.07
2023-02-12T20:55:50.327Z,0.00
2023-02-12T21:00:55.473Z,-0.51
2023-02-12T21:06:02.071Z,-0.84
2023-02-12T21:11:12.014Z,-0.91
2023-02-12T21:16:18.398Z,-0.55
2023-02-12T21:21:26.604Z,0.32
2023-02-12T21:26:34.449Z,0.60
2023-02-12T21:31:40.829Z,0.74
2023-02-12T21:36:48.416Z,-0.21
2023-02-12T21:41:53.775Z,0.30
2023-02-12T21:46:58.763Z,0.63
2023-02-12T21:52:06.806Z,0.77
2023-02-12T21:57:13.922Z,1.07
2023-02-12T22:02:18.527Z,1.01
2023-02-12T22:07:24.743Z,0.86
2023-02-12T22:12:32.458Z,1.13
2023-02-12T22:17:36.977Z,0.78
2023-02-12T22:22:43.127Z,0.84
2023-02-12T22:27:47.716Z,-0.81
2023-02-12T22:32:52.251Z,-1.01
2023-02-12T22:37:58.355Z,-1.45
2023-02-12T22:43:02.946Z,-1.31
2023-02-12T22:48:07.475Z,-0.98
2023-02-12T22:53:13.431Z,0.16
2023-02-12T22:58:18.241Z,-0.27
2023-02-12T23:03:23.093Z,0.07
2023-02-12T23:08:29.075Z,-0.57
2023-02-12T23:13:33.223Z,-0.46
2023-02-12T23:18:38.191Z,0.59
2023-02-12T23:23:44.075Z,0.14
2023-02-12T23:28:48.126Z,-0.61
2023-02-12T23:33:52.985Z,-0.25
2023-02-12T23:38:59.422Z,0.36
2023-02-12T23:44:03.867Z,-0.18
2023-02-12T23:49:08.908Z,1.12
2023-02-12T23:54:14.996Z,0.20
2023-02-12T23:59:19.455Z,2.09
